createdAt,value
2018-06-04T00:00:17.817Z,14.10
2018-06-04T00:02:46.099Z,14.10
2018-06-04T00:05:14.386Z,14.20
2018-06-04T00:07:42.770Z,14.10
2018-06-04T00:10:11.056Z,14.10
2018-06-04T00:12:39.361Z,14.20
2018-06-04T00:15:07.659Z,14.20
2018-06-04T00:17:35.948Z,14.20
2018-06-04T00:20:04.246Z,14.40
2018-06-04T00:22:32.539Z,14.60
2018-06-04T00:25:00.819Z,14.80
2018-06-04T00:27:29.097Z,14.80
2018-06-04T00:29:57.368Z,14.90
2018-06-04T00:32:25.641Z,14.90
2018-06-04T00:34:53.932Z,14.80
2018-06-04T00:37:22.216Z,14.80
2018-06-04T00:39:50.683Z,14.70
2018-06-04T00:42:19.006Z,14.60
2018-06-04T00:44:47.309Z,14.50
2018-06-04T00:47:15.588Z,14.50
2018-06-04T00:49:43.879Z,14.50
2018-06-04T00:52:12.159Z,14.50
2018-06-04T00:54:40.439Z,14.50
2018-06-04T00:57:08.890Z,14.60
2018-06-04T00:59:37.171Z,14.50
2018-06-04T01:02:05.673Z,14.40
2018-06-04T01:04:33.960Z,14.40
2018-06-04T01:07:02.244Z,14.30
2018-06-04T01:09:30.538Z,14.20
2018-06-04T01:11:58.844Z,14.10
2018-06-04T01:14:27.209Z,14.00
2018-06-04T01:16:55.506Z,14.00
2018-06-04T01:19:23.782Z,14.00
2018-06-04T01:21:57.605Z,14.00
2018-06-04T01:24:25.896Z,14.00
2018-06-04T01:26:54.207Z,14.00
2018-06-04T01:35:10.136Z,14.00
2018-06-04T01:37:38.402Z,13.90
2018-06-04T01:40:06.692Z,13.90
2018-06-04T01:42:35.047Z,13.90
2018-06-04T01:45:03.452Z,13.90
2018-06-04T01:47:31.741Z,13.90
2018-06-04T01:50:00.012Z,13.90
2018-06-04T01:52:28.283Z,13.90
2018-06-04T01:54:56.571Z,13.90
2018-06-04T01:57:24.856Z,13.90
2018-06-04T01:59:53.135Z,13.90
2018-06-04T02:02:21.409Z,13.80
2018-06-04T02:04:49.691Z,13.80
2018-06-04T02:07:17.960Z,13.80
2018-06-04T02:09:46.326Z,13.80
2018-06-04T02:12:20.203Z,13.70
2018-06-04T02:14:48.545Z,13.70
2018-06-04T02:17:16.847Z,13.70
2018-06-04T02:19:45.197Z,13.60
2018-06-04T02:28:00.806Z,13.60
2018-06-04T02:30:29.098Z,13.50
2018-06-04T02:32:57.371Z,13.40
2018-06-04T02:35:25.727Z,13.40
2018-06-04T02:37:54.003Z,13.50
2018-06-04T02:40:22.298Z,13.60
2018-06-04T02:42:50.672Z,13.50
2018-06-04T02:45:18.984Z,13.50
2018-06-04T02:47:47.293Z,13.40
2018-06-04T02:50:15.626Z,13.40
2018-06-04T02:52:43.898Z,13.40
2018-06-04T02:55:12.210Z,13.40
2018-06-04T02:57:40.496Z,13.30
2018-06-04T03:00:08.802Z,13.30
2018-06-04T03:02:37.086Z,13.40
2018-06-04T03:05:05.445Z,13.40
2018-06-04T03:07:33.720Z,13.40
2018-06-04T03:10:02.017Z,13.30
2018-06-04T03:12:30.300Z,13.30
2018-06-04T03:14:58.735Z,13.30
2018-06-04T03:17:27.036Z,13.30
2018-06-04T03:19:55.346Z,13.20
2018-06-04T03:22:23.631Z,13.30
2018-06-04T03:24:51.916Z,13.30
2018-06-04T03:27:20.173Z,13.30
2018-06-04T03:29:48.480Z,13.40
2018-06-04T03:32:18.393Z,13.40
2018-06-04T03:34:46.678Z,13.40
2018-06-04T03:37:14.951Z,13.30
2018-06-04T03:39:43.226Z,13.40
2018-06-04T03:42:11.508Z,13.40
2018-06-04T03:44:39.792Z,13.50
2018-06-04T03:47:08.109Z,13.60
2018-06-04T03:49:36.496Z,13.70
2018-06-04T03:54:32.813Z,13.80
2018-06-04T03:57:01.138Z,13.90
2018-06-04T03:59:29.399Z,14.00
2018-06-04T04:01:57.682Z,14.10
2018-06-04T04:04:26.009Z,14.20
2018-06-04T04:06:54.305Z,14.30
2018-06-04T04:09:22.598Z,14.40
2018-06-04T04:11:50.888Z,14.50
2018-06-04T04:14:19.161Z,14.70
2018-06-04T04:16:47.439Z,14.80
2018-06-04T04:19:15.784Z,14.90
2018-06-04T04:21:44.116Z,15.00
2018-06-04T04:24:12.432Z,15.10
2018-06-04T04:26:40.734Z,15.20
2018-06-04T04:29:09.016Z,15.40
2018-06-04T04:31:37.301Z,15.50
2018-06-04T04:34:05.627Z,15.70
2018-06-04T04:36:33.904Z,15.70
2018-06-04T04:39:02.281Z,15.90
2018-06-04T04:41:30.614Z,16.00
2018-06-04T04:43:58.901Z,16.10
2018-06-04T04:46:27.212Z,16.30
2018-06-04T04:48:55.600Z,16.40
2018-06-04T04:51:23.974Z,16.50
2018-06-04T04:53:52.366Z,16.70
2018-06-04T04:56:20.714Z,16.70
2018-06-04T04:58:49.039Z,16.90
2018-06-04T05:01:17.330Z,17.00
2018-06-04T05:03:45.622Z,17.20
2018-06-04T05:08:41.976Z,17.60
2018-06-04T05:11:10.257Z,17.80
2018-06-04T05:13:38.650Z,17.90
2018-06-04T05:16:06.953Z,18.00
2018-06-04T05:18:35.276Z,18.10
2018-06-04T05:21:03.611Z,18.20
2018-06-04T05:23:32.068Z,18.40
2018-06-04T05:28:28.496Z,18.90
2018-06-04T05:30:56.799Z,19.00
2018-06-04T05:33:25.083Z,19.10
2018-06-04T05:35:53.486Z,19.20
2018-06-04T05:38:21.848Z,19.30
2018-06-04T05:40:50.146Z,19.50
2018-06-04T05:43:18.487Z,19.60
2018-06-04T05:48:14.866Z,19.70
2018-06-04T05:50:43.144Z,19.90
2018-06-04T05:53:11.425Z,20.00
2018-06-04T05:55:39.796Z,20.10
2018-06-04T05:58:08.132Z,20.30
2018-06-04T06:00:36.411Z,20.20
2018-06-04T06:03:04.702Z,20.40
2018-06-04T06:05:33.000Z,20.70
2018-06-04T06:08:01.312Z,20.70
2018-06-04T06:10:29.599Z,20.90
2018-06-04T06:12:57.882Z,21.10
2018-06-04T06:15:26.190Z,21.30
2018-06-04T06:17:54.488Z,21.50
2018-06-04T06:20:22.768Z,21.30
2018-06-04T06:22:51.114Z,21.10
2018-06-04T06:25:19.391Z,21.10
2018-06-04T06:27:47.869Z,21.40
2018-06-04T06:30:16.211Z,21.50
2018-06-04T06:32:44.522Z,21.80
2018-06-04T06:35:12.799Z,22.10
2018-06-04T06:37:41.164Z,22.20
2018-06-04T06:40:09.491Z,22.10
2018-06-04T06:42:37.893Z,22.00
2018-06-04T06:45:06.210Z,21.80
2018-06-04T06:47:34.514Z,21.80
2018-06-04T06:50:02.801Z,21.80
2018-06-04T06:52:31.085Z,22.10
2018-06-04T06:54:59.396Z,22.20
2018-06-04T06:57:27.735Z,22.10
2018-06-04T06:59:56.212Z,22.40
2018-06-04T07:02:24.611Z,23.40
2018-06-04T07:04:53.029Z,23.60
2018-06-04T07:07:21.414Z,23.60
2018-06-04T07:09:49.886Z,24.30
2018-06-04T07:12:18.265Z,24.40
2018-06-04T07:14:46.671Z,24.40
2018-06-04T07:17:15.068Z,24.50
2018-06-04T07:19:43.404Z,26.00
2018-06-04T07:22:11.798Z,26.60
2018-06-04T07:24:40.273Z,26.30
2018-06-04T07:27:08.680Z,26.30
2018-06-04T07:29:37.180Z,26.90
2018-06-04T07:32:05.718Z,27.90
2018-06-04T07:34:34.376Z,28.30
2018-06-04T07:37:02.808Z,27.30
2018-06-04T07:39:31.276Z,28.00
2018-06-04T07:41:59.830Z,29.00
2018-06-04T07:44:28.197Z,31.20
2018-06-04T07:46:56.530Z,30.10
2018-06-04T07:49:24.965Z,27.60
2018-06-04T07:51:53.347Z,27.00
2018-06-04T07:54:21.786Z,27.90
2018-06-04T07:56:50.156Z,28.30
2018-06-04T07:59:21.459Z,30.00
2018-06-04T08:01:49.734Z,30.10
2018-06-04T08:04:18.038Z,30.10
2018-06-04T08:06:46.288Z,29.80
2018-06-04T08:09:14.586Z,29.80
2018-06-04T08:11:42.938Z,31.20
2018-06-04T08:14:11.230Z,30.50
2018-06-04T08:16:39.510Z,28.50
2018-06-04T08:19:07.817Z,28.40
2018-06-04T08:21:36.062Z,29.90
2018-06-04T08:24:04.358Z,30.30
2018-06-04T08:26:32.654Z,31.40
2018-06-04T08:29:00.938Z,32.80
2018-06-04T08:31:29.210Z,33.00
2018-06-04T08:33:57.487Z,34.70
2018-06-04T08:36:25.747Z,34.20
2018-06-04T08:38:54.050Z,34.60
2018-06-04T08:41:22.323Z,34.60
2018-06-04T08:43:50.678Z,31.80
2018-06-04T08:46:18.956Z,30.40
2018-06-04T08:48:47.241Z,29.50
2018-06-04T08:51:15.529Z,30.40
2018-06-04T08:53:43.807Z,30.50
2018-06-04T08:56:12.125Z,30.80
2018-06-04T08:58:40.375Z,30.50
2018-06-04T09:01:08.659Z,32.40
2018-06-04T09:03:36.936Z,34.50
2018-06-04T09:06:05.252Z,35.70
2018-06-04T09:08:33.513Z,34.50
2018-06-04T09:11:01.806Z,33.50
2018-06-04T09:13:30.083Z,31.60
2018-06-04T09:15:58.441Z,32.30
2018-06-04T09:18:26.725Z,33.80
2018-06-04T09:20:55.014Z,32.80
2018-06-04T09:23:23.275Z,30.40
2018-06-04T09:25:51.553Z,31.30
2018-06-04T09:28:19.817Z,32.80
2018-06-04T09:30:48.139Z,33.50
2018-06-04T09:33:16.405Z,32.20
2018-06-04T09:35:44.679Z,29.80
2018-06-04T09:38:12.959Z,30.80
2018-06-04T09:40:41.254Z,29.90
2018-06-04T09:43:09.525Z,30.10
2018-06-04T09:45:37.917Z,31.20
2018-06-04T09:48:06.226Z,29.80
2018-06-04T09:50:34.497Z,29.40
2018-06-04T09:53:02.791Z,31.50
2018-06-04T09:55:31.062Z,34.00
2018-06-04T09:57:59.421Z,36.10
2018-06-04T10:00:33.057Z,33.00
2018-06-04T10:03:01.585Z,33.00
2018-06-04T10:05:29.898Z,33.70
2018-06-04T10:07:58.121Z,31.90
2018-06-04T10:10:26.407Z,33.20
2018-06-04T10:12:54.668Z,32.00
2018-06-04T10:17:51.004Z,29.50
2018-06-04T10:20:19.277Z,28.60
2018-06-04T10:22:47.532Z,29.00
2018-06-04T10:25:15.875Z,31.60
2018-06-04T10:27:44.156Z,32.40
2018-06-04T10:30:12.443Z,33.30
2018-06-04T10:32:40.730Z,32.00
2018-06-04T10:35:09.006Z,31.70
2018-06-04T10:37:37.290Z,30.80
2018-06-04T10:40:05.568Z,31.70
2018-06-04T10:42:33.845Z,31.80
2018-06-04T10:45:02.139Z,31.70
2018-06-04T10:47:30.543Z,31.00
2018-06-04T10:49:58.813Z,30.90
2018-06-04T10:52:27.080Z,32.70
2018-06-04T10:54:55.491Z,33.30
2018-06-04T10:57:23.842Z,33.00
2018-06-04T10:59:52.119Z,33.80
2018-06-04T11:02:21.396Z,35.20
2018-06-04T11:04:49.718Z,36.80
2018-06-04T11:07:17.962Z,36.90
2018-06-04T11:09:46.241Z,36.50
2018-06-04T11:12:14.520Z,36.60
2018-06-04T11:14:42.805Z,35.80
2018-06-04T11:17:11.093Z,33.60
2018-06-04T11:19:39.377Z,35.50
2018-06-04T11:22:07.948Z,36.60
2018-06-04T11:27:04.237Z,34.70
2018-06-04T11:29:32.593Z,34.60
2018-06-04T11:32:00.916Z,34.70
2018-06-04T11:34:29.250Z,35.00
2018-06-04T11:36:57.542Z,34.90
2018-06-04T11:39:25.821Z,35.20
2018-06-04T11:41:54.261Z,33.90
2018-06-04T11:44:22.555Z,33.50
2018-06-04T11:46:50.843Z,35.10
2018-06-04T11:49:19.118Z,31.90
2018-06-04T11:51:47.582Z,31.20
2018-06-04T11:54:15.845Z,33.40
2018-06-04T11:56:44.163Z,34.00
2018-06-04T11:59:12.434Z,35.80
2018-06-04T12:01:40.809Z,36.20
2018-06-04T12:04:09.081Z,37.70
2018-06-04T12:06:37.355Z,38.20
2018-06-04T12:09:07.661Z,33.60
2018-06-04T12:11:36.226Z,34.50
2018-06-04T12:14:04.522Z,32.30
2018-06-04T12:16:32.810Z,34.20
2018-06-04T12:19:01.114Z,36.40
2018-06-04T12:21:29.396Z,36.70
2018-06-04T12:23:57.802Z,37.40
2018-06-04T12:26:26.061Z,38.60
2018-06-04T12:28:54.350Z,36.10
2018-06-04T12:31:22.627Z,34.90
2018-06-04T12:33:51.037Z,37.20
2018-06-04T12:36:19.373Z,37.30
2018-06-04T12:38:47.670Z,37.50
2018-06-04T12:41:16.170Z,38.40
2018-06-04T12:43:44.557Z,37.90
2018-06-04T12:46:14.052Z,38.30
2018-06-04T12:48:42.431Z,38.80
2018-06-04T12:51:10.726Z,37.50
2018-06-04T12:53:39.032Z,34.60
2018-06-04T12:56:07.847Z,36.60
2018-06-04T12:58:36.148Z,37.30
2018-06-04T13:01:04.433Z,35.50
2018-06-04T13:03:32.713Z,36.70
2018-06-04T13:06:01.015Z,37.90
2018-06-04T13:08:29.409Z,37.90
2018-06-04T13:10:57.859Z,37.70
2018-06-04T13:13:26.163Z,36.90
2018-06-04T13:15:54.885Z,35.10
2018-06-04T13:18:23.184Z,33.70
2018-06-04T13:20:51.591Z,35.60
2018-06-04T13:23:19.894Z,37.60
2018-06-04T13:25:49.257Z,39.80
2018-06-04T13:28:17.585Z,40.20
2018-06-04T13:30:45.854Z,41.00
2018-06-04T13:33:14.163Z,39.40
2018-06-04T13:35:42.461Z,37.30
2018-06-04T13:38:10.741Z,36.40
2018-06-04T13:40:39.046Z,36.00
2018-06-04T13:43:07.377Z,35.00
2018-06-04T13:45:35.725Z,36.10
2018-06-04T13:48:04.032Z,37.10
2018-06-04T13:50:32.335Z,37.40
2018-06-04T13:53:00.647Z,37.50
2018-06-04T13:55:28.968Z,37.10
2018-06-04T13:57:57.234Z,37.90
2018-06-04T14:00:25.529Z,37.70
2018-06-04T14:02:53.829Z,36.80
2018-06-04T14:05:22.112Z,35.60
2018-06-04T14:07:50.431Z,34.80
2018-06-04T14:10:19.335Z,31.10
2018-06-04T14:12:47.654Z,30.80
2018-06-04T14:15:16.066Z,31.00
2018-06-04T14:17:44.449Z,30.20
2018-06-04T14:20:12.770Z,29.70
2018-06-04T14:22:41.295Z,29.80
2018-06-04T14:25:09.751Z,29.80
2018-06-04T14:27:38.162Z,30.10
2018-06-04T14:30:06.505Z,30.50
2018-06-04T14:32:35.897Z,30.80
2018-06-04T14:35:04.281Z,31.00
2018-06-04T14:37:32.627Z,31.00
2018-06-04T14:40:01.045Z,30.60
2018-06-04T14:42:29.346Z,30.20
2018-06-04T14:44:57.639Z,29.70
2018-06-04T14:47:25.937Z,29.60
2018-06-04T14:49:54.322Z,29.50
2018-06-04T14:52:22.699Z,29.60
2018-06-04T14:54:51.013Z,29.50
2018-06-04T14:57:19.364Z,29.10
2018-06-04T14:59:47.684Z,29.30
2018-06-04T15:02:15.986Z,29.30
2018-06-04T15:04:44.306Z,29.30
2018-06-04T15:07:12.592Z,29.10
2018-06-04T15:09:40.878Z,28.90
2018-06-04T15:12:09.221Z,29.20
2018-06-04T15:14:37.517Z,29.50
2018-06-04T15:17:05.899Z,29.60
2018-06-04T15:19:34.177Z,29.00
2018-06-04T15:22:02.518Z,29.40
2018-06-04T15:24:31.018Z,29.50
2018-06-04T15:26:59.304Z,29.20
2018-06-04T15:29:27.612Z,28.90
2018-06-04T15:31:55.921Z,28.80
2018-06-04T15:34:24.257Z,29.00
2018-06-04T15:36:52.553Z,28.60
2018-06-04T15:39:20.889Z,28.90
2018-06-04T15:41:49.195Z,28.60
2018-06-04T15:44:17.548Z,28.70
2018-06-04T15:46:45.865Z,29.00
2018-06-04T15:49:14.265Z,29.20
2018-06-04T15:51:42.560Z,29.10
2018-06-04T15:54:10.837Z,29.30
2018-06-04T15:56:39.175Z,29.40
2018-06-04T15:59:07.501Z,29.40
2018-06-04T16:01:35.778Z,28.90
2018-06-04T16:04:04.053Z,28.90
2018-06-04T16:06:33.114Z,29.00
2018-06-04T16:09:02.682Z,28.90
2018-06-04T16:11:30.990Z,28.80
2018-06-04T16:13:59.325Z,28.70
2018-06-04T16:18:56.377Z,28.90
2018-06-04T16:21:24.673Z,28.80
2018-06-04T16:23:53.144Z,28.80
2018-06-04T16:26:22.598Z,28.80
2018-06-04T16:28:51.813Z,28.80
2018-06-04T16:31:20.125Z,28.80
2018-06-04T16:33:48.637Z,28.70
2018-06-04T16:36:17.194Z,28.60
2018-06-04T16:41:13.587Z,28.60
2018-06-04T16:43:42.059Z,28.70
2018-06-04T16:46:10.386Z,28.70
2018-06-04T16:48:38.765Z,28.40
2018-06-04T16:51:07.164Z,28.20
2018-06-04T16:53:35.442Z,28.10
2018-06-04T16:58:31.972Z,27.90
2018-06-04T17:01:01.295Z,27.70
2018-06-04T17:03:29.702Z,27.50
2018-06-04T17:05:58.017Z,27.30
2018-06-04T17:08:26.570Z,27.30
2018-06-04T17:10:54.973Z,27.00
2018-06-04T17:13:23.529Z,26.80
2018-06-04T17:15:51.835Z,26.50
2018-06-04T17:18:20.141Z,26.10
2018-06-04T17:20:48.492Z,26.00
2018-06-04T17:23:16.794Z,25.90
2018-06-04T17:25:45.097Z,25.70
2018-06-04T17:28:14.561Z,25.70
2018-06-04T17:30:43.101Z,25.50
2018-06-04T17:33:11.637Z,25.40
2018-06-04T17:35:39.934Z,25.30
2018-06-04T17:38:08.303Z,25.30
2018-06-04T17:40:36.598Z,25.30
2018-06-04T17:43:05.137Z,25.20
2018-06-04T17:45:33.434Z,25.20
2018-06-04T17:48:01.832Z,25.20
2018-06-04T17:50:36.509Z,25.20
2018-06-04T17:53:04.818Z,25.20
2018-06-04T17:55:33.121Z,25.10
2018-06-04T18:00:29.461Z,25.00
2018-06-04T18:02:57.795Z,24.90
2018-06-04T18:05:26.164Z,24.80
2018-06-04T18:07:54.483Z,24.70
2018-06-04T18:10:22.766Z,24.60
2018-06-04T18:12:51.169Z,24.50
2018-06-04T18:15:19.568Z,24.50
2018-06-04T18:17:47.938Z,24.40
2018-06-04T18:20:16.246Z,24.30
2018-06-04T18:22:44.737Z,24.30
2018-06-04T18:25:13.043Z,24.20
2018-06-04T18:27:41.484Z,24.00
2018-06-04T18:30:09.813Z,23.90
2018-06-04T18:35:06.164Z,23.80
2018-06-04T18:37:34.489Z,23.70
2018-06-04T18:40:02.867Z,23.60
2018-06-04T18:42:31.149Z,23.50
2018-06-04T18:44:59.476Z,23.40
2018-06-04T18:47:28.769Z,23.20
2018-06-04T18:49:57.117Z,23.10
2018-06-04T18:52:25.414Z,23.00
2018-06-04T18:54:53.877Z,22.90
2018-06-04T18:57:22.362Z,22.70
2018-06-04T18:59:51.429Z,22.50
2018-06-04T19:02:19.714Z,22.40
2018-06-04T19:04:48.027Z,22.20
2018-06-04T19:07:16.344Z,22.00
2018-06-04T19:09:44.723Z,21.80
2018-06-04T19:12:13.104Z,21.70
2018-06-04T19:14:41.427Z,21.50
2018-06-04T19:17:09.746Z,21.30
2018-06-04T19:19:38.199Z,21.20
2018-06-04T19:22:06.873Z,21.10
2018-06-04T19:24:35.180Z,21.10
2018-06-04T19:27:03.493Z,21.00
2018-06-04T19:29:31.946Z,20.90
2018-06-04T19:32:00.253Z,20.90
2018-06-04T19:34:28.545Z,20.90
2018-06-04T19:36:56.847Z,20.80
2018-06-04T19:39:25.175Z,20.80
2018-06-04T19:41:53.436Z,20.70
2018-06-04T19:44:21.764Z,20.70
2018-06-04T19:46:50.048Z,20.60
2018-06-04T19:49:18.353Z,20.50
2018-06-04T19:51:46.672Z,20.50
2018-06-04T19:54:14.984Z,20.30
2018-06-04T19:56:43.297Z,20.20
2018-06-04T19:59:11.869Z,20.00
2018-06-04T20:01:40.169Z,19.90
2018-06-04T20:04:08.494Z,19.80
2018-06-04T20:06:36.795Z,19.70
2018-06-04T20:09:08.235Z,19.60
2018-06-04T20:11:36.797Z,19.60
2018-06-04T20:14:05.415Z,19.50
2018-06-04T20:16:33.859Z,19.40
2018-06-04T20:19:02.181Z,19.30
2018-06-04T20:21:30.545Z,19.20
2018-06-04T20:23:58.853Z,19.10
2018-06-04T20:26:27.417Z,19.10
2018-06-04T20:28:57.023Z,19.00
2018-06-04T20:31:52.743Z,19.00
2018-06-04T20:34:21.146Z,19.10
2018-06-04T20:36:49.567Z,18.90
2018-06-04T20:39:18.365Z,18.90
2018-06-04T20:41:46.733Z,18.90
2018-06-04T20:44:15.036Z,18.90
2018-06-04T20:46:43.373Z,18.90
2018-06-04T20:49:11.810Z,18.90
2018-06-04T20:51:40.204Z,18.80
2018-06-04T20:54:08.588Z,18.70
2018-06-04T20:56:37.266Z,18.70
2018-06-04T20:59:06.607Z,18.60
2018-06-04T21:01:34.905Z,18.60
2018-06-04T21:04:04.394Z,18.50
2018-06-04T21:06:32.925Z,18.60
2018-06-04T21:09:01.217Z,18.60
2018-06-04T21:11:29.605Z,18.60
2018-06-04T21:13:58.029Z,18.60
2018-06-04T21:16:26.388Z,18.60
2018-06-04T21:18:54.751Z,18.60
2018-06-04T21:21:23.030Z,18.60
2018-06-04T21:23:51.414Z,18.50
2018-06-04T21:26:19.809Z,18.40
2018-06-04T21:28:48.099Z,18.30
2018-06-04T21:31:17.316Z,18.20
2018-06-04T21:33:46.083Z,18.20
2018-06-04T21:36:14.518Z,18.20
2018-06-04T21:38:42.996Z,18.10
2018-06-04T21:41:11.442Z,18.00
2018-06-04T21:43:39.883Z,18.00
2018-06-04T21:46:08.403Z,18.00
2018-06-04T21:48:36.899Z,18.00
2018-06-04T21:51:05.348Z,18.00
2018-06-04T21:56:01.934Z,18.00
2018-06-04T21:58:30.329Z,17.90
2018-06-04T22:00:58.713Z,17.90
2018-06-04T22:03:27.172Z,17.80
2018-06-04T22:05:55.539Z,17.80
2018-06-04T22:08:24.018Z,17.80
2018-06-04T22:10:52.401Z,17.70
2018-06-04T22:13:20.822Z,17.60
2018-06-04T22:15:49.296Z,17.60
2018-06-04T22:18:18.011Z,17.50
2018-06-04T22:20:46.398Z,17.60
2018-06-04T22:23:14.768Z,17.60
2018-06-04T22:25:43.153Z,17.60
2018-06-04T22:28:11.553Z,17.60
2018-06-04T22:30:39.953Z,17.60
2018-06-04T22:33:08.387Z,17.60
2018-06-04T22:35:36.797Z,17.60
2018-06-04T22:38:05.246Z,17.60
2018-06-04T22:40:33.634Z,17.50
2018-06-04T22:43:02.055Z,17.60
2018-06-04T22:45:30.449Z,17.60
2018-06-04T22:47:58.843Z,17.60
2018-06-04T22:50:27.281Z,17.60
2018-06-04T22:52:55.690Z,17.60
2018-06-04T22:55:24.156Z,17.60
2018-06-04T22:57:52.577Z,17.50
2018-06-04T23:00:31.878Z,17.50
2018-06-04T23:03:00.351Z,17.50
2018-06-04T23:05:28.912Z,17.40
2018-06-04T23:07:57.338Z,17.40
2018-06-04T23:10:25.739Z,17.40
2018-06-04T23:12:54.122Z,17.40
2018-06-04T23:15:22.511Z,17.40
2018-06-04T23:17:50.883Z,17.20
2018-06-04T23:20:19.278Z,17.20
2018-06-04T23:22:47.715Z,17.20
2018-06-04T23:25:16.089Z,17.20
2018-06-04T23:27:44.448Z,17.10
2018-06-04T23:30:12.831Z,17.10
2018-06-04T23:32:41.295Z,17.10
2018-06-04T23:35:09.702Z,17.10
2018-06-04T23:37:38.077Z,17.10
2018-06-04T23:40:06.719Z,17.10
2018-06-04T23:42:35.200Z,17.10
2018-06-04T23:45:03.700Z,17.10
2018-06-04T23:47:32.141Z,17.10
2018-06-04T23:50:00.554Z,17.20
2018-06-04T23:52:29.014Z,17.10
2018-06-04T23:54:57.374Z,17.00
2018-06-04T23:57:25.779Z,16.90
2018-06-04T23:59:54.328Z,16.70
